sensor_id;sensor_type;location;lat;lon;timestamp;temperature;humidity
2363;DHT22;1192;51.664;7.626;2022-07-29T00:01:31;21.90;87.80
2363;DHT22;1192;51.664;7.626;2022-07-29T00:03:57;21.80;87.80
2363;DHT22;1192;51.664;7.626;2022-07-29T00:06:24;21.80;87.80
2363;DHT22;1192;51.664;7.626;2022-07-29T00:08:52;21.80;88.00
2363;DHT22;1192;51.664;7.626;2022-07-29T00:11:20;21.80;88.10
2363;DHT22;1192;51.664;7.626;2022-07-29T00:13:46;21.80;88.20
2363;DHT22;1192;51.664;7.626;2022-07-29T00:16:13;21.80;88.30
2363;DHT22;1192;51.664;7.626;2022-07-29T00:18:40;21.80;88.50
2363;DHT22;1192;51.664;7.626;2022-07-29T00:21:07;21.70;88.50
2363;DHT22;1192;51.664;7.626;2022-07-29T00:23:34;21.70;88.50
2363;DHT22;1192;51.664;7.626;2022-07-29T00:26:02;21.70;88.50
2363;DHT22;1192;51.664;7.626;2022-07-29T00:28:28;21.70;88.50
2363;DHT22;1192;51.664;7.626;2022-07-29T00:30:55;21.70;88.50
2363;DHT22;1192;51.664;7.626;2022-07-29T00:33:22;21.70;88.80
2363;DHT22;1192;51.664;7.626;2022-07-29T00:35:49;21.70;88.80
2363;DHT22;1192;51.664;7.626;2022-07-29T00:38:17;21.70;88.90
2363;DHT22;1192;51.664;7.626;2022-07-29T00:40:46;21.60;88.50
2363;DHT22;1192;51.664;7.626;2022-07-29T00:43:14;21.60;88.90
2363;DHT22;1192;51.664;7.626;2022-07-29T00:45:41;21.60;89.00
2363;DHT22;1192;51.664;7.626;2022-07-29T00:48:08;21.60;88.90
2363;DHT22;1192;51.664;7.626;2022-07-29T00:50:35;21.60;89.20
2363;DHT22;1192;51.664;7.626;2022-07-29T00:53:03;21.60;89.00
2363;DHT22;1192;51.664;7.626;2022-07-29T00:55:29;21.60;89.20
2363;DHT22;1192;51.664;7.626;2022-07-29T00:57:57;21.60;89.10
2363;DHT22;1192;51.664;7.626;2022-07-29T01:00:27;21.50;89.20
2363;DHT22;1192;51.664;7.626;2022-07-29T01:02:55;21.50;89.20
2363;DHT22;1192;51.664;7.626;2022-07-29T01:05:23;21.50;88.90
2363;DHT22;1192;51.664;7.626;2022-07-29T01:07:52;21.50;89.30
2363;DHT22;1192;51.664;7.626;2022-07-29T01:10:20;21.50;89.00
2363;DHT22;1192;51.664;7.626;2022-07-29T01:12:49;21.50;89.30
2363;DHT22;1192;51.664;7.626;2022-07-29T01:15:16;21.50;89.20
2363;DHT22;1192;51.664;7.626;2022-07-29T01:17:47;21.50;89.00
2363;DHT22;1192;51.664;7.626;2022-07-29T01:20:22;21.50;89.30
2363;DHT22;1192;51.664;7.626;2022-07-29T01:23:31;21.50;89.00
2363;DHT22;1192;51.664;7.626;2022-07-29T01:26:23;21.40;88.90
2363;DHT22;1192;51.664;7.626;2022-07-29T01:29:05;21.40;89.00
2363;DHT22;1192;51.664;7.626;2022-07-29T01:31:38;21.40;89.30
2363;DHT22;1192;51.664;7.626;2022-07-29T01:34:09;21.40;89.40
2363;DHT22;1192;51.664;7.626;2022-07-29T01:36:42;21.40;89.50
2363;DHT22;1192;51.664;7.626;2022-07-29T01:39:12;21.40;89.50
2363;DHT22;1192;51.664;7.626;2022-07-29T01:41:45;21.40;89.60
2363;DHT22;1192;51.664;7.626;2022-07-29T01:44:19;21.40;89.70
2363;DHT22;1192;51.664;7.626;2022-07-29T01:46:52;21.30;89.50
2363;DHT22;1192;51.664;7.626;2022-07-29T01:49:24;21.30;89.50
2363;DHT22;1192;51.664;7.626;2022-07-29T01:51:58;21.30;89.60
2363;DHT22;1192;51.664;7.626;2022-07-29T01:54:32;21.30;89.60
2363;DHT22;1192;51.664;7.626;2022-07-29T01:57:01;21.30;89.80
2363;DHT22;1192;51.664;7.626;2022-07-29T01:59:32;21.30;89.70
2363;DHT22;1192;51.664;7.626;2022-07-29T02:02:01;21.30;89.80
2363;DHT22;1192;51.664;7.626;2022-07-29T02:04:29;21.30;89.80
2363;DHT22;1192;51.664;7.626;2022-07-29T02:07:02;21.30;89.80
2363;DHT22;1192;51.664;7.626;2022-07-29T02:09:30;21.20;89.90
2363;DHT22;1192;51.664;7.626;2022-07-29T02:11:59;21.20;89.90
2363;DHT22;1192;51.664;7.626;2022-07-29T02:14:30;21.20;90.00
2363;DHT22;1192;51.664;7.626;2022-07-29T02:17:02;21.20;90.00
2363;DHT22;1192;51.664;7.626;2022-07-29T02:19:31;21.20;90.10
2363;DHT22;1192;51.664;7.626;2022-07-29T02:21:59;21.20;90.10
2363;DHT22;1192;51.664;7.626;2022-07-29T02:24:27;21.20;90.10
2363;DHT22;1192;51.664;7.626;2022-07-29T02:26:56;21.10;90.10
2363;DHT22;1192;51.664;7.626;2022-07-29T02:29:26;21.10;90.10
2363;DHT22;1192;51.664;7.626;2022-07-29T02:31:57;21.10;90.20
2363;DHT22;1192;51.664;7.626;2022-07-29T02:34:27;21.10;90.20
2363;DHT22;1192;51.664;7.626;2022-07-29T02:36:55;21.10;90.20
2363;DHT22;1192;51.664;7.626;2022-07-29T02:39:24;21.10;90.20
2363;DHT22;1192;51.664;7.626;2022-07-29T02:41:55;21.10;90.20
2363;DHT22;1192;51.664;7.626;2022-07-29T02:44:25;21.10;90.30
2363;DHT22;1192;51.664;7.626;2022-07-29T02:46:58;21.10;90.30
2363;DHT22;1192;51.664;7.626;2022-07-29T02:49:35;21.00;90.30
2363;DHT22;1192;51.664;7.626;2022-07-29T02:52:04;21.00;90.40
2363;DHT22;1192;51.664;7.626;2022-07-29T02:54:38;21.00;90.50
2363;DHT22;1192;51.664;7.626;2022-07-29T02:57:11;21.00;90.50
2363;DHT22;1192;51.664;7.626;2022-07-29T02:59:42;21.00;90.50
2363;DHT22;1192;51.664;7.626;2022-07-29T03:02:12;21.00;90.60
2363;DHT22;1192;51.664;7.626;2022-07-29T03:04:42;21.00;90.60
2363;DHT22;1192;51.664;7.626;2022-07-29T03:07:11;21.00;90.60
2363;DHT22;1192;51.664;7.626;2022-07-29T03:09:40;20.90;90.60
2363;DHT22;1192;51.664;7.626;2022-07-29T03:12:08;20.90;90.50
2363;DHT22;1192;51.664;7.626;2022-07-29T03:14:36;20.90;90.50
2363;DHT22;1192;51.664;7.626;2022-07-29T03:17:03;20.90;90.50
2363;DHT22;1192;51.664;7.626;2022-07-29T03:19:31;20.90;90.60
2363;DHT22;1192;51.664;7.626;2022-07-29T03:21:59;20.90;90.60
2363;DHT22;1192;51.664;7.626;2022-07-29T03:24:29;20.90;90.70
2363;DHT22;1192;51.664;7.626;2022-07-29T03:26:57;20.90;90.80
2363;DHT22;1192;51.664;7.626;2022-07-29T03:29:24;20.80;90.70
2363;DHT22;1192;51.664;7.626;2022-07-29T03:31:51;20.80;90.80
2363;DHT22;1192;51.664;7.626;2022-07-29T03:34:18;20.80;90.80
2363;DHT22;1192;51.664;7.626;2022-07-29T03:36:45;20.80;90.90
2363;DHT22;1192;51.664;7.626;2022-07-29T03:39:16;20.80;90.90
2363;DHT22;1192;51.664;7.626;2022-07-29T03:41:45;20.80;90.90
2363;DHT22;1192;51.664;7.626;2022-07-29T03:44:13;20.80;91.00
2363;DHT22;1192;51.664;7.626;2022-07-29T03:46:42;20.80;91.00
2363;DHT22;1192;51.664;7.626;2022-07-29T03:49:10;20.70;91.00
2363;DHT22;1192;51.664;7.626;2022-07-29T03:51:38;20.70;91.00
2363;DHT22;1192;51.664;7.626;2022-07-29T03:54:05;20.70;91.00
2363;DHT22;1192;51.664;7.626;2022-07-29T03:56:38;20.70;91.10
2363;DHT22;1192;51.664;7.626;2022-07-29T03:59:05;20.70;91.10
2363;DHT22;1192;51.664;7.626;2022-07-29T04:01:33;20.70;91.20
2363;DHT22;1192;51.664;7.626;2022-07-29T04:04:01;20.70;91.20
2363;DHT22;1192;51.664;7.626;2022-07-29T04:06:27;20.70;91.30
2363;DHT22;1192;51.664;7.626;2022-07-29T04:08:54;20.70;91.30
2363;DHT22;1192;51.664;7.626;2022-07-29T04:11:21;20.70;91.30
2363;DHT22;1192;51.664;7.626;2022-07-29T04:13:49;20.70;91.40
2363;DHT22;1192;51.664;7.626;2022-07-29T04:16:16;20.70;91.40
2363;DHT22;1192;51.664;7.626;2022-07-29T04:18:42;20.60;91.40
2363;DHT22;1192;51.664;7.626;2022-07-29T04:21:09;20.60;91.40
2363;DHT22;1192;51.664;7.626;2022-07-29T04:23:36;20.60;91.50
2363;DHT22;1192;51.664;7.626;2022-07-29T04:26:02;20.60;91.50
2363;DHT22;1192;51.664;7.626;2022-07-29T04:28:29;20.60;91.60
2363;DHT22;1192;51.664;7.626;2022-07-29T04:30:57;20.60;91.60
2363;DHT22;1192;51.664;7.626;2022-07-29T04:33:24;20.60;91.60
2363;DHT22;1192;51.664;7.626;2022-07-29T04:35:51;20.60;91.60
2363;DHT22;1192;51.664;7.626;2022-07-29T04:38:18;20.60;91.60
2363;DHT22;1192;51.664;7.626;2022-07-29T04:40:45;20.60;91.70
2363;DHT22;1192;51.664;7.626;2022-07-29T04:43:11;20.60;91.70
2363;DHT22;1192;51.664;7.626;2022-07-29T04:45:38;20.50;91.70
2363;DHT22;1192;51.664;7.626;2022-07-29T04:48:06;20.50;91.80
2363;DHT22;1192;51.664;7.626;2022-07-29T04:50:33;20.50;91.80
2363;DHT22;1192;51.664;7.626;2022-07-29T04:53:00;20.50;91.90
2363;DHT22;1192;51.664;7.626;2022-07-29T04:55:26;20.50;91.90
2363;DHT22;1192;51.664;7.626;2022-07-29T04:57:53;20.50;92.00
2363;DHT22;1192;51.664;7.626;2022-07-29T05:00:20;20.50;92.00
2363;DHT22;1192;51.664;7.626;2022-07-29T05:02:48;20.50;92.10
2363;DHT22;1192;51.664;7.626;2022-07-29T05:05:16;20.50;92.10
2363;DHT22;1192;51.664;7.626;2022-07-29T05:07:43;20.50;92.10
2363;DHT22;1192;51.664;7.626;2022-07-29T05:10:10;20.50;92.20
2363;DHT22;1192;51.664;7.626;2022-07-29T05:12:37;20.50;92.20
2363;DHT22;1192;51.664;7.626;2022-07-29T05:15:04;20.50;92.20
2363;DHT22;1192;51.664;7.626;2022-07-29T05:17:31;20.50;92.20
2363;DHT22;1192;51.664;7.626;2022-07-29T05:19:59;20.50;92.30
2363;DHT22;1192;51.664;7.626;2022-07-29T05:22:27;20.50;92.40
2363;DHT22;1192;51.664;7.626;2022-07-29T05:24:54;20.50;92.40
2363;DHT22;1192;51.664;7.626;2022-07-29T05:27:20;20.50;92.40
2363;DHT22;1192;51.664;7.626;2022-07-29T05:29:47;20.50;92.50
2363;DHT22;1192;51.664;7.626;2022-07-29T05:32:14;20.50;92.50
2363;DHT22;1192;51.664;7.626;2022-07-29T05:34:41;20.50;92.50
2363;DHT22;1192;51.664;7.626;2022-07-29T05:37:08;20.50;92.60
2363;DHT22;1192;51.664;7.626;2022-07-29T05:39:36;20.50;92.60
2363;DHT22;1192;51.664;7.626;2022-07-29T05:42:03;20.50;92.60
2363;DHT22;1192;51.664;7.626;2022-07-29T05:44:29;20.50;92.60
2363;DHT22;1192;51.664;7.626;2022-07-29T05:46:56;20.50;92.70
2363;DHT22;1192;51.664;7.626;2022-07-29T05:49:23;20.50;92.70
2363;DHT22;1192;51.664;7.626;2022-07-29T05:51:49;20.50;92.70
2363;DHT22;1192;51.664;7.626;2022-07-29T05:54:16;20.60;92.70
2363;DHT22;1192;51.664;7.626;2022-07-29T05:56:44;20.60;92.70
2363;DHT22;1192;51.664;7.626;2022-07-29T05:59:11;20.60;92.80
2363;DHT22;1192;51.664;7.626;2022-07-29T06:01:38;20.60;92.70
2363;DHT22;1192;51.664;7.626;2022-07-29T06:04:05;20.60;92.70
2363;DHT22;1192;51.664;7.626;2022-07-29T06:06:32;20.60;92.90
2363;DHT22;1192;51.664;7.626;2022-07-29T06:08:58;20.50;92.90
2363;DHT22;1192;51.664;7.626;2022-07-29T06:11:25;20.50;93.00
2363;DHT22;1192;51.664;7.626;2022-07-29T06:13:53;20.50;93.00
2363;DHT22;1192;51.664;7.626;2022-07-29T06:16:20;20.50;93.00
2363;DHT22;1192;51.664;7.626;2022-07-29T06:18:47;20.50;93.10
2363;DHT22;1192;51.664;7.626;2022-07-29T06:21:14;20.50;93.10
2363;DHT22;1192;51.664;7.626;2022-07-29T06:23:40;20.50;93.20
2363;DHT22;1192;51.664;7.626;2022-07-29T06:26:07;20.50;93.20
2363;DHT22;1192;51.664;7.626;2022-07-29T06:28:34;20.50;93.30
2363;DHT22;1192;51.664;7.626;2022-07-29T06:31:02;20.50;93.30
2363;DHT22;1192;51.664;7.626;2022-07-29T06:33:29;20.50;93.30
2363;DHT22;1192;51.664;7.626;2022-07-29T06:35:56;20.50;93.30
2363;DHT22;1192;51.664;7.626;2022-07-29T06:38:23;20.50;93.30
2363;DHT22;1192;51.664;7.626;2022-07-29T06:40:50;20.60;93.30
2363;DHT22;1192;51.664;7.626;2022-07-29T06:43:31;20.60;93.30
2363;DHT22;1192;51.664;7.626;2022-07-29T06:46:00;20.60;93.20
2363;DHT22;1192;51.664;7.626;2022-07-29T06:48:28;20.70;93.30
2363;DHT22;1192;51.664;7.626;2022-07-29T06:50:55;20.80;93.20
2363;DHT22;1192;51.664;7.626;2022-07-29T06:53:22;20.90;93.00
2363;DHT22;1192;51.664;7.626;2022-07-29T06:55:49;21.00;92.70
2363;DHT22;1192;51.664;7.626;2022-07-29T06:58:16;21.10;92.50
2363;DHT22;1192;51.664;7.626;2022-07-29T07:00:45;21.20;92.40
2363;DHT22;1192;51.664;7.626;2022-07-29T07:03:16;21.20;92.40
2363;DHT22;1192;51.664;7.626;2022-07-29T07:05:44;21.20;92.30
2363;DHT22;1192;51.664;7.626;2022-07-29T07:08:12;21.20;92.30
2363;DHT22;1192;51.664;7.626;2022-07-29T07:10:39;21.20;92.30
2363;DHT22;1192;51.664;7.626;2022-07-29T07:13:06;21.20;92.30
2363;DHT22;1192;51.664;7.626;2022-07-29T07:15:33;21.20;92.30
2363;DHT22;1192;51.664;7.626;2022-07-29T07:17:59;21.20;92.30
2363;DHT22;1192;51.664;7.626;2022-07-29T07:20:49;21.20;92.30
2363;DHT22;1192;51.664;7.626;2022-07-29T07:23:16;21.20;92.30
2363;DHT22;1192;51.664;7.626;2022-07-29T07:25:43;21.20;92.40
2363;DHT22;1192;51.664;7.626;2022-07-29T07:28:10;21.20;92.40
2363;DHT22;1192;51.664;7.626;2022-07-29T07:30:37;21.20;92.40
2363;DHT22;1192;51.664;7.626;2022-07-29T07:33:04;21.20;92.40
2363;DHT22;1192;51.664;7.626;2022-07-29T07:35:31;21.20;92.40
2363;DHT22;1192;51.664;7.626;2022-07-29T07:37:59;21.20;92.40
2363;DHT22;1192;51.664;7.626;2022-07-29T07:40:26;21.30;92.30
2363;DHT22;1192;51.664;7.626;2022-07-29T07:42:52;21.40;92.20
2363;DHT22;1192;51.664;7.626;2022-07-29T07:45:19;21.50;92.10
2363;DHT22;1192;51.664;7.626;2022-07-29T07:47:46;21.50;92.00
2363;DHT22;1192;51.664;7.626;2022-07-29T07:50:13;21.60;91.90
2363;DHT22;1192;51.664;7.626;2022-07-29T07:52:47;21.70;91.80
2363;DHT22;1192;51.664;7.626;2022-07-29T07:55:16;21.90;91.40
2363;DHT22;1192;51.664;7.626;2022-07-29T07:57:43;22.10;91.00
2363;DHT22;1192;51.664;7.626;2022-07-29T08:00:10;22.30;90.70
2363;DHT22;1192;51.664;7.626;2022-07-29T08:02:38;22.60;90.20
2363;DHT22;1192;51.664;7.626;2022-07-29T08:05:06;22.70;89.80
2363;DHT22;1192;51.664;7.626;2022-07-29T08:07:33;22.80;89.20
2363;DHT22;1192;51.664;7.626;2022-07-29T08:10:01;22.90;89.10
2363;DHT22;1192;51.664;7.626;2022-07-29T08:12:29;22.80;88.80
2363;DHT22;1192;51.664;7.626;2022-07-29T08:14:56;22.80;88.80
2363;DHT22;1192;51.664;7.626;2022-07-29T08:17:22;22.70;88.60
2363;DHT22;1192;51.664;7.626;2022-07-29T08:19:49;22.70;89.10
2363;DHT22;1192;51.664;7.626;2022-07-29T08:22:16;22.70;89.20
2363;DHT22;1192;51.664;7.626;2022-07-29T08:24:43;22.80;88.20
2363;DHT22;1192;51.664;7.626;2022-07-29T08:27:12;22.90;88.30
2363;DHT22;1192;51.664;7.626;2022-07-29T08:29:40;22.90;88.10
2363;DHT22;1192;51.664;7.626;2022-07-29T08:32:07;22.90;88.20
2363;DHT22;1192;51.664;7.626;2022-07-29T08:34:34;22.90;88.20
2363;DHT22;1192;51.664;7.626;2022-07-29T08:37:00;22.90;88.40
2363;DHT22;1192;51.664;7.626;2022-07-29T08:39:27;22.90;88.40
2363;DHT22;1192;51.664;7.626;2022-07-29T08:41:54;23.00;88.10
2363;DHT22;1192;51.664;7.626;2022-07-29T08:44:21;23.20;87.60
2363;DHT22;1192;51.664;7.626;2022-07-29T08:46:49;23.30;87.20
2363;DHT22;1192;51.664;7.626;2022-07-29T08:49:17;23.40;86.90
2363;DHT22;1192;51.664;7.626;2022-07-29T08:51:44;23.40;86.60
2363;DHT22;1192;51.664;7.626;2022-07-29T08:54:11;23.40;86.50
2363;DHT22;1192;51.664;7.626;2022-07-29T08:56:40;23.30;86.50
2363;DHT22;1192;51.664;7.626;2022-07-29T08:59:07;23.30;86.50
2363;DHT22;1192;51.664;7.626;2022-07-29T09:01:36;23.40;86.60
2363;DHT22;1192;51.664;7.626;2022-07-29T09:04:08;23.40;86.70
2363;DHT22;1192;51.664;7.626;2022-07-29T09:06:37;23.50;86.40
2363;DHT22;1192;51.664;7.626;2022-07-29T09:09:07;23.50;86.10
2363;DHT22;1192;51.664;7.626;2022-07-29T09:11:34;23.60;85.70
2363;DHT22;1192;51.664;7.626;2022-07-29T09:14:01;23.60;85.80
2363;DHT22;1192;51.664;7.626;2022-07-29T09:16:44;23.50;86.80
2363;DHT22;1192;51.664;7.626;2022-07-29T09:19:22;23.50;86.10
2363;DHT22;1192;51.664;7.626;2022-07-29T09:21:49;23.50;86.40
2363;DHT22;1192;51.664;7.626;2022-07-29T09:24:26;23.40;86.40
2363;DHT22;1192;51.664;7.626;2022-07-29T09:26:53;23.40;86.60
2363;DHT22;1192;51.664;7.626;2022-07-29T09:29:22;23.40;86.70
2363;DHT22;1192;51.664;7.626;2022-07-29T09:31:51;23.30;87.00
2363;DHT22;1192;51.664;7.626;2022-07-29T09:34:23;23.30;87.20
2363;DHT22;1192;51.664;7.626;2022-07-29T09:36:54;23.30;87.20
2363;DHT22;1192;51.664;7.626;2022-07-29T09:39:28;23.30;87.50
2363;DHT22;1192;51.664;7.626;2022-07-29T09:41:59;23.30;87.70
2363;DHT22;1192;51.664;7.626;2022-07-29T09:44:28;23.30;87.80
2363;DHT22;1192;51.664;7.626;2022-07-29T09:47:07;23.30;87.60
2363;DHT22;1192;51.664;7.626;2022-07-29T09:49:49;23.30;87.70
2363;DHT22;1192;51.664;7.626;2022-07-29T09:52:16;23.30;87.70
2363;DHT22;1192;51.664;7.626;2022-07-29T09:54:44;23.40;88.10
2363;DHT22;1192;51.664;7.626;2022-07-29T09:57:25;23.40;87.80
2363;DHT22;1192;51.664;7.626;2022-07-29T09:59:59;23.40;87.70
2363;DHT22;1192;51.664;7.626;2022-07-29T10:02:30;23.40;87.70
2363;DHT22;1192;51.664;7.626;2022-07-29T10:04:59;23.40;87.60
2363;DHT22;1192;51.664;7.626;2022-07-29T10:07:27;23.40;87.80
2363;DHT22;1192;51.664;7.626;2022-07-29T10:10:08;23.40;87.90
2363;DHT22;1192;51.664;7.626;2022-07-29T10:12:48;23.30;87.90
2363;DHT22;1192;51.664;7.626;2022-07-29T10:15:16;23.40;87.90
2363;DHT22;1192;51.664;7.626;2022-07-29T10:17:43;23.40;87.90
2363;DHT22;1192;51.664;7.626;2022-07-29T10:20:12;23.40;88.10
2363;DHT22;1192;51.664;7.626;2022-07-29T10:22:39;23.40;88.10
2363;DHT22;1192;51.664;7.626;2022-07-29T10:25:07;23.40;88.20
2363;DHT22;1192;51.664;7.626;2022-07-29T10:27:35;23.40;88.20
2363;DHT22;1192;51.664;7.626;2022-07-29T10:30:03;23.40;88.10
2363;DHT22;1192;51.664;7.626;2022-07-29T10:32:49;23.40;88.20
2363;DHT22;1192;51.664;7.626;2022-07-29T10:35:27;23.40;88.40
2363;DHT22;1192;51.664;7.626;2022-07-29T10:41:03;23.40;89.20
2363;DHT22;1192;51.664;7.626;2022-07-29T10:43:51;23.40;89.40
2363;DHT22;1192;51.664;7.626;2022-07-29T10:46:18;23.30;89.50
2363;DHT22;1192;51.664;7.626;2022-07-29T10:49:05;23.30;89.60
2363;DHT22;1192;51.664;7.626;2022-07-29T10:51:58;23.40;90.00
2363;DHT22;1192;51.664;7.626;2022-07-29T10:54:39;23.40;90.00
2363;DHT22;1192;51.664;7.626;2022-07-29T10:57:18;23.40;90.10
2363;DHT22;1192;51.664;7.626;2022-07-29T10:59:46;23.40;90.00
2363;DHT22;1192;51.664;7.626;2022-07-29T11:02:41;23.30;90.40
2363;DHT22;1192;51.664;7.626;2022-07-29T11:05:10;23.30;90.10
2363;DHT22;1192;51.664;7.626;2022-07-29T11:08:01;23.30;90.30
2363;DHT22;1192;51.664;7.626;2022-07-29T11:10:27;23.30;90.30
2363;DHT22;1192;51.664;7.626;2022-07-29T11:12:53;23.20;90.40
2363;DHT22;1192;51.664;7.626;2022-07-29T11:15:21;23.20;90.50
2363;DHT22;1192;51.664;7.626;2022-07-29T11:18:08;23.20;90.60
2363;DHT22;1192;51.664;7.626;2022-07-29T11:20:38;23.10;90.70
2363;DHT22;1192;51.664;7.626;2022-07-29T11:23:24;23.10;90.80
2363;DHT22;1192;51.664;7.626;2022-07-29T11:26:16;23.10;90.80
2363;DHT22;1192;51.664;7.626;2022-07-29T11:29:02;23.10;91.00
2363;DHT22;1192;51.664;7.626;2022-07-29T11:31:37;23.10;91.10
2363;DHT22;1192;51.664;7.626;2022-07-29T11:34:18;23.00;91.10
2363;DHT22;1192;51.664;7.626;2022-07-29T11:37:16;23.00;91.30
2363;DHT22;1192;51.664;7.626;2022-07-29T11:39:46;23.00;91.50
2363;DHT22;1192;51.664;7.626;2022-07-29T11:42:43;23.00;91.80
2363;DHT22;1192;51.664;7.626;2022-07-29T11:45:15;23.00;92.10
2363;DHT22;1192;51.664;7.626;2022-07-29T11:47:49;23.00;92.20
2363;DHT22;1192;51.664;7.626;2022-07-29T11:50:18;22.90;92.30
2363;DHT22;1192;51.664;7.626;2022-07-29T11:52:52;22.90;92.40
2363;DHT22;1192;51.664;7.626;2022-07-29T11:55:21;22.90;92.50
2363;DHT22;1192;51.664;7.626;2022-07-29T11:57:51;22.90;92.60
2363;DHT22;1192;51.664;7.626;2022-07-29T12:00:28;22.90;92.70
2363;DHT22;1192;51.664;7.626;2022-07-29T12:02:55;22.90;92.90
2363;DHT22;1192;51.664;7.626;2022-07-29T12:05:34;22.90;93.00
2363;DHT22;1192;51.664;7.626;2022-07-29T12:08:06;22.90;93.10
2363;DHT22;1192;51.664;7.626;2022-07-29T12:10:33;22.90;93.30
2363;DHT22;1192;51.664;7.626;2022-07-29T12:13:02;22.80;93.20
2363;DHT22;1192;51.664;7.626;2022-07-29T12:15:29;22.80;93.70
2363;DHT22;1192;51.664;7.626;2022-07-29T12:17:56;22.80;93.40
2363;DHT22;1192;51.664;7.626;2022-07-29T12:20:24;22.80;93.30
2363;DHT22;1192;51.664;7.626;2022-07-29T12:22:51;22.80;93.30
2363;DHT22;1192;51.664;7.626;2022-07-29T12:25:20;22.80;93.40
2363;DHT22;1192;51.664;7.626;2022-07-29T12:27:47;22.80;93.50
2363;DHT22;1192;51.664;7.626;2022-07-29T12:30:38;22.80;93.40
2363;DHT22;1192;51.664;7.626;2022-07-29T12:33:27;22.80;93.60
2363;DHT22;1192;51.664;7.626;2022-07-29T12:35:55;22.80;93.50
2363;DHT22;1192;51.664;7.626;2022-07-29T12:38:22;22.80;93.60
2363;DHT22;1192;51.664;7.626;2022-07-29T12:40:52;22.80;93.60
2363;DHT22;1192;51.664;7.626;2022-07-29T12:43:20;22.70;93.70
2363;DHT22;1192;51.664;7.626;2022-07-29T12:45:50;22.70;93.70
2363;DHT22;1192;51.664;7.626;2022-07-29T12:48:18;22.70;93.90
2363;DHT22;1192;51.664;7.626;2022-07-29T12:51:00;22.70;94.60
2363;DHT22;1192;51.664;7.626;2022-07-29T12:53:27;22.70;95.00
2363;DHT22;1192;51.664;7.626;2022-07-29T12:55:55;22.60;95.30
2363;DHT22;1192;51.664;7.626;2022-07-29T12:58:33;22.60;95.80
2363;DHT22;1192;51.664;7.626;2022-07-29T13:01:05;22.60;95.90
2363;DHT22;1192;51.664;7.626;2022-07-29T13:03:49;22.60;96.00
2363;DHT22;1192;51.664;7.626;2022-07-29T13:26:50;22.40;98.00
2363;DHT22;1192;51.664;7.626;2022-07-29T13:29:18;22.40;98.40
2363;DHT22;1192;51.664;7.626;2022-07-29T13:31:44;22.40;98.70
2363;DHT22;1192;51.664;7.626;2022-07-29T13:34:11;22.40;98.60
2363;DHT22;1192;51.664;7.626;2022-07-29T13:36:38;22.40;98.90
2363;DHT22;1192;51.664;7.626;2022-07-29T13:39:04;22.40;99.10
2363;DHT22;1192;51.664;7.626;2022-07-29T13:41:31;22.40;99.90
2363;DHT22;1192;51.664;7.626;2022-07-29T13:43:59;22.40;99.90
2363;DHT22;1192;51.664;7.626;2022-07-29T13:46:26;22.40;99.90
2363;DHT22;1192;51.664;7.626;2022-07-29T13:48:53;22.40;99.90
2363;DHT22;1192;51.664;7.626;2022-07-29T13:51:19;22.40;99.90
2363;DHT22;1192;51.664;7.626;2022-07-29T13:53:46;22.40;99.90
2363;DHT22;1192;51.664;7.626;2022-07-29T13:56:13;22.40;99.90
2363;DHT22;1192;51.664;7.626;2022-07-29T13:58:39;22.50;99.90
2363;DHT22;1192;51.664;7.626;2022-07-29T14:01:07;22.50;99.90
2363;DHT22;1192;51.664;7.626;2022-07-29T14:03:34;22.50;99.90
2363;DHT22;1192;51.664;7.626;2022-07-29T14:06:03;22.50;99.80
2363;DHT22;1192;51.664;7.626;2022-07-29T14:08:30;22.50;99.70
2363;DHT22;1192;51.664;7.626;2022-07-29T14:10:56;22.50;99.50
2363;DHT22;1192;51.664;7.626;2022-07-29T14:13:23;22.50;99.90
2363;DHT22;1192;51.664;7.626;2022-07-29T14:15:50;22.50;99.60
2363;DHT22;1192;51.664;7.626;2022-07-29T14:18:18;22.60;99.90
2363;DHT22;1192;51.664;7.626;2022-07-29T14:20:45;22.50;99.80
2363;DHT22;1192;51.664;7.626;2022-07-29T14:23:11;22.60;99.90
2363;DHT22;1192;51.664;7.626;2022-07-29T14:25:38;22.60;99.60
2363;DHT22;1192;51.664;7.626;2022-07-29T14:28:05;22.60;99.60
2363;DHT22;1192;51.664;7.626;2022-07-29T14:30:32;22.50;99.90
2363;DHT22;1192;51.664;7.626;2022-07-29T14:32:59;22.60;99.90
2363;DHT22;1192;51.664;7.626;2022-07-29T14:35:27;22.60;99.70
2363;DHT22;1192;51.664;7.626;2022-07-29T14:37:54;22.60;99.80
2363;DHT22;1192;51.664;7.626;2022-07-29T14:40:21;22.60;99.70
2363;DHT22;1192;51.664;7.626;2022-07-29T14:42:48;22.50;99.70
2363;DHT22;1192;51.664;7.626;2022-07-29T14:45:15;22.60;99.60
2363;DHT22;1192;51.664;7.626;2022-07-29T14:47:41;22.60;99.60
2363;DHT22;1192;51.664;7.626;2022-07-29T14:50:09;22.60;99.60
2363;DHT22;1192;51.664;7.626;2022-07-29T14:52:37;22.50;99.50
2363;DHT22;1192;51.664;7.626;2022-07-29T14:55:05;22.60;99.50
2363;DHT22;1192;51.664;7.626;2022-07-29T14:57:32;22.60;99.70
2363;DHT22;1192;51.664;7.626;2022-07-29T14:59:58;22.60;99.30
2363;DHT22;1192;51.664;7.626;2022-07-29T15:02:25;22.60;99.20
2363;DHT22;1192;51.664;7.626;2022-07-29T15:04:52;22.60;99.30
2363;DHT22;1192;51.664;7.626;2022-07-29T15:07:18;22.60;99.20
2363;DHT22;1192;51.664;7.626;2022-07-29T15:09:46;22.60;99.00
2363;DHT22;1192;51.664;7.626;2022-07-29T15:12:13;22.60;99.40
2363;DHT22;1192;51.664;7.626;2022-07-29T15:14:52;22.60;99.10
2363;DHT22;1192;51.664;7.626;2022-07-29T15:17:36;22.60;99.20
2363;DHT22;1192;51.664;7.626;2022-07-29T15:20:07;22.60;99.10
2363;DHT22;1192;51.664;7.626;2022-07-29T15:22:48;22.60;99.00
2363;DHT22;1192;51.664;7.626;2022-07-29T15:25:17;22.60;98.90
2363;DHT22;1192;51.664;7.626;2022-07-29T15:27:53;22.60;98.90
2363;DHT22;1192;51.664;7.626;2022-07-29T15:30:33;22.60;98.80
2363;DHT22;1192;51.664;7.626;2022-07-29T15:33:41;22.60;98.80
2363;DHT22;1192;51.664;7.626;2022-07-29T15:36:22;22.60;98.90
2363;DHT22;1192;51.664;7.626;2022-07-29T15:38:51;22.60;98.80
2363;DHT22;1192;51.664;7.626;2022-07-29T15:44:18;22.60;98.70
2363;DHT22;1192;51.664;7.626;2022-07-29T15:46:45;22.60;98.70
2363;DHT22;1192;51.664;7.626;2022-07-29T15:49:32;22.60;98.80
2363;DHT22;1192;51.664;7.626;2022-07-29T15:51:59;22.60;98.80
2363;DHT22;1192;51.664;7.626;2022-07-29T15:54:29;22.60;98.70
2363;DHT22;1192;51.664;7.626;2022-07-29T15:56:56;22.60;98.90
2363;DHT22;1192;51.664;7.626;2022-07-29T15:59:27;22.60;98.80
2363;DHT22;1192;51.664;7.626;2022-07-29T16:01:54;22.60;98.80
2363;DHT22;1192;51.664;7.626;2022-07-29T16:04:23;22.70;98.80
2363;DHT22;1192;51.664;7.626;2022-07-29T16:06:49;22.60;98.60
2363;DHT22;1192;51.664;7.626;2022-07-29T16:09:17;22.60;98.60
2363;DHT22;1192;51.664;7.626;2022-07-29T16:11:44;22.60;98.50
2363;DHT22;1192;51.664;7.626;2022-07-29T16:14:13;22.60;98.40
2363;DHT22;1192;51.664;7.626;2022-07-29T16:16:41;22.60;98.40
2363;DHT22;1192;51.664;7.626;2022-07-29T16:19:13;22.60;98.40
2363;DHT22;1192;51.664;7.626;2022-07-29T16:21:42;22.60;98.40
2363;DHT22;1192;51.664;7.626;2022-07-29T16:24:09;22.60;98.40
2363;DHT22;1192;51.664;7.626;2022-07-29T16:26:36;22.60;98.40
2363;DHT22;1192;51.664;7.626;2022-07-29T16:29:05;22.60;98.40
2363;DHT22;1192;51.664;7.626;2022-07-29T16:31:31;22.60;98.40
2363;DHT22;1192;51.664;7.626;2022-07-29T16:34:00;22.60;98.40
2363;DHT22;1192;51.664;7.626;2022-07-29T16:36:27;22.60;98.40
2363;DHT22;1192;51.664;7.626;2022-07-29T16:38:54;22.60;98.30
2363;DHT22;1192;51.664;7.626;2022-07-29T16:41:21;22.70;98.20
2363;DHT22;1192;51.664;7.626;2022-07-29T16:43:48;22.70;98.30
2363;DHT22;1192;51.664;7.626;2022-07-29T16:46:15;22.70;98.20